createdAt,value
2019-04-22T00:00:54.181Z,1.9
2019-04-22T00:01:56.795Z,1.9
2019-04-22T00:02:58.052Z,1.9
2019-04-22T00:04:01.252Z,1.9
2019-04-22T00:05:04.576Z,1.9
2019-04-22T00:06:11.349Z,1.9
2019-04-22T00:07:15.396Z,2
2019-04-22T00:08:16.280Z,1.9
2019-04-22T00:09:17.018Z,1.9
2019-04-22T00:10:19.156Z,1.9
2019-04-22T00:11:24.944Z,1.9
2019-04-22T00:12:19.317Z,1.9
2019-04-22T00:13:25.690Z,1.9
2019-04-22T00:14:11.487Z,1.9
2019-04-22T00:15:15.083Z,1.9
2019-04-22T00:16:14.149Z,1.9
2019-04-22T00:17:21.836Z,1.9
2019-04-22T00:18:19.676Z,1.9
2019-04-22T00:19:20.491Z,1.9
2019-04-22T00:20:22.228Z,1.9
2019-04-22T00:21:19.301Z,2
2019-04-22T00:22:21.929Z,2
2019-04-22T00:23:18.246Z,2
2019-04-22T00:24:16.821Z,2
2019-04-22T00:25:26.071Z,1.9
2019-04-22T00:26:22.264Z,2
2019-04-22T00:28:21.323Z,2
2019-04-22T00:30:33.748Z,2
2019-04-22T00:31:20.517Z,2.1
2019-04-22T00:32:17.843Z,2.1
2019-04-22T00:33:20.275Z,2
2019-04-22T00:34:15.703Z,2
2019-04-22T00:35:17.711Z,1.9
2019-04-22T00:36:21.529Z,1.8
2019-04-22T00:37:22.626Z,1.9
2019-04-22T00:38:23.267Z,1.9
2019-04-22T00:39:19.824Z,1.9
2019-04-22T00:40:19.449Z,2
2019-04-22T00:41:19.026Z,1.9
2019-04-22T00:42:20.692Z,1.9
2019-04-22T00:43:19.045Z,2
2019-04-22T00:44:25.323Z,1.9
2019-04-22T00:45:18.942Z,1.9
2019-04-22T00:46:17.394Z,1.8
2019-04-22T00:47:22.751Z,1.8
2019-04-22T00:48:26.945Z,1.9
2019-04-22T00:49:58.049Z,1.9
2019-04-22T00:51:22.317Z,1.9
2019-04-22T00:52:21.583Z,1.9
2019-04-22T00:53:22.318Z,1.9
2019-04-22T00:54:21.265Z,1.9
2019-04-22T00:55:17.963Z,1.8
2019-04-22T00:56:15.571Z,1.8
2019-04-22T00:57:21.041Z,1.8
2019-04-22T00:58:23.888Z,1.7
2019-04-22T00:59:16.814Z,1.8
2019-04-22T01:00:17.460Z,1.8
2019-04-22T01:01:18.723Z,1.8
2019-04-22T01:02:20.047Z,1.8
2019-04-22T01:03:25.759Z,1.8
2019-04-22T01:04:27.280Z,1.8
2019-04-22T01:05:21.202Z,1.8
2019-04-22T01:06:19.842Z,1.8
2019-04-22T01:07:56.193Z,1.8
2019-04-22T01:08:20.897Z,1.8
2019-04-22T01:09:16.720Z,1.9
2019-04-22T01:10:25.010Z,1.9
2019-04-22T01:11:22.527Z,1.9
2019-04-22T01:12:19.484Z,1.9
2019-04-22T01:13:18.399Z,1.9
2019-04-22T01:14:21.493Z,1.9
2019-04-22T01:15:23.162Z,1.9
2019-04-22T01:16:22.487Z,1.9
2019-04-22T01:17:25.434Z,1.9
2019-04-22T01:18:15.502Z,1.9
2019-04-22T01:19:21.078Z,1.9
2019-04-22T01:20:45.069Z,1.9
2019-04-22T01:22:20.313Z,1.9
2019-04-22T01:23:17.800Z,1.9
2019-04-22T01:24:15.559Z,1.9
2019-04-22T01:25:18.776Z,1.9
2019-04-22T01:26:09.292Z,1.9
2019-04-22T01:27:11.286Z,1.9
2019-04-22T01:28:10.741Z,2
2019-04-22T01:29:10.841Z,2
2019-04-22T01:30:09.367Z,2
2019-04-22T01:31:04.623Z,2
2019-04-22T01:31:58.080Z,1.9
2019-04-22T01:33:05.541Z,2
2019-04-22T01:34:09.832Z,2.1
2019-04-22T01:35:12.701Z,2
2019-04-22T01:36:13.519Z,2
2019-04-22T01:37:13.539Z,2.1
2019-04-22T01:38:13.033Z,2
2019-04-22T01:39:19.864Z,2
2019-04-22T01:40:23.629Z,1.9
2019-04-22T01:41:22.817Z,1.9
2019-04-22T01:42:15.584Z,1.9
2019-04-22T01:43:24.404Z,1.9
2019-04-22T01:44:28.634Z,1.9
2019-04-22T01:45:24.580Z,1.8
2019-04-22T01:46:24.560Z,1.9
2019-04-22T01:47:24.431Z,2.1
2019-04-22T01:48:25.900Z,2
2019-04-22T01:49:21.024Z,2
2019-04-22T01:50:25.660Z,1.9
2019-04-22T01:51:28.095Z,1.9
2019-04-22T01:52:19.843Z,1.8
2019-04-22T01:53:26.918Z,1.8
2019-04-22T01:54:29.090Z,1.9
2019-04-22T01:55:24.377Z,1.9
2019-04-22T01:56:27.054Z,1.8
2019-04-22T01:57:22.111Z,1.8
2019-04-22T01:58:16.765Z,1.8
2019-04-22T01:59:14.922Z,1.8
2019-04-22T02:00:15.081Z,1.9
2019-04-22T02:01:21.910Z,1.9
2019-04-22T02:02:21.976Z,1.8
2019-04-22T02:03:25.412Z,1.8
2019-04-22T02:04:25.442Z,1.8
2019-04-22T02:05:22.610Z,1.9
2019-04-22T02:06:21.712Z,1.9
2019-04-22T02:07:23.291Z,2.1
2019-04-22T02:08:30.753Z,2.3
2019-04-22T02:09:30.954Z,2.3
2019-04-22T02:10:27.940Z,2.2
2019-04-22T02:11:25.387Z,2.1
2019-04-22T02:12:25.516Z,2
2019-04-22T02:13:21.184Z,2.1
2019-04-22T02:14:26.733Z,2.1
2019-04-22T02:15:23.154Z,2.3
2019-04-22T02:16:27.175Z,2.4
2019-04-22T02:17:24.818Z,2.3
2019-04-22T02:19:30.166Z,2.1
2019-04-22T02:20:24.806Z,2.3
2019-04-22T02:21:19.990Z,2.3
2019-04-22T02:22:28.579Z,2.2
2019-04-22T02:24:25.937Z,2.1
2019-04-22T02:25:23.480Z,2.1
2019-04-22T02:26:25.178Z,2
2019-04-22T02:27:31.925Z,2
2019-04-22T02:28:32.072Z,2
2019-04-22T02:29:28.614Z,2.1
2019-04-22T02:30:33.071Z,2.1
2019-04-22T02:32:38.539Z,1.9
2019-04-22T02:33:51.072Z,2
2019-04-22T02:34:32.314Z,2
2019-04-22T02:35:33.671Z,2
2019-04-22T02:36:28.873Z,1.9
2019-04-22T02:37:35.025Z,1.9
2019-04-22T02:38:43.965Z,1.9
2019-04-22T02:39:23.454Z,1.9
2019-04-22T02:40:29.991Z,1.8
2019-04-22T02:43:43.327Z,1.6
2019-04-22T02:44:27.774Z,1.6
2019-04-22T02:45:36.756Z,1.6
2019-04-22T02:46:52.219Z,1.5
2019-04-22T02:48:45.384Z,1.5
2019-04-22T02:49:28.867Z,1.5
2019-04-22T02:50:27.858Z,1.5
2019-04-22T02:54:00.330Z,1.5
2019-04-22T02:54:38.103Z,1.5
2019-04-22T02:55:31.733Z,1.6
2019-04-22T02:58:37.068Z,1.6
2019-04-22T03:00:37.036Z,1.5
2019-04-22T03:01:35.900Z,1.5
2019-04-22T03:03:40.339Z,1.5
2019-04-22T03:04:27.955Z,1.5
2019-04-22T03:05:36.240Z,1.4
2019-04-22T03:06:34.481Z,1.4
2019-04-22T03:07:31.532Z,1.4
2019-04-22T03:08:29.066Z,1.4
2019-04-22T03:10:36.931Z,1.5
2019-04-22T03:13:37.438Z,1.6
2019-04-22T03:14:29.495Z,1.5
2019-04-22T03:15:29.591Z,1.5
2019-04-22T03:16:31.667Z,1.4
2019-04-22T03:17:28.421Z,1.5
2019-04-22T03:19:44.147Z,1.5
2019-04-22T03:20:24.040Z,1.5
2019-04-22T03:21:23.677Z,1.5
2019-04-22T03:22:27.795Z,1.5
2019-04-22T03:25:58.399Z,1.5
2019-04-22T03:26:31.647Z,1.6
2019-04-22T03:27:34.621Z,1.6
2019-04-22T03:28:36.875Z,1.6
2019-04-22T03:29:27.862Z,1.5
2019-04-22T03:35:18.751Z,1.6
2019-04-22T03:38:40.832Z,1.7
2019-04-22T03:39:50.275Z,1.5
2019-04-22T03:40:36.213Z,1.6
2019-04-22T03:42:43.399Z,1.6
2019-04-22T03:43:41.938Z,1.6
2019-04-22T03:45:27.544Z,1.7
2019-04-22T03:46:41.593Z,1.7
2019-04-22T03:48:35.707Z,1.8
2019-04-22T03:50:35.925Z,1.6
2019-04-22T03:51:45.450Z,1.5
2019-04-22T03:52:44.330Z,1.5
2019-04-22T03:53:47.886Z,1.5
2019-04-22T03:55:38.183Z,1.5
2019-04-22T03:57:06.729Z,1.5
2019-04-22T03:57:45.556Z,1.5
2019-04-22T03:58:36.573Z,1.4
2019-04-22T03:59:41.016Z,1.4
2019-04-22T04:00:42.805Z,1.5
2019-04-22T04:03:28.029Z,1.5
2019-04-22T04:04:32.452Z,1.4
2019-04-22T04:05:37.136Z,1.4
2019-04-22T04:06:39.465Z,1.5
2019-04-22T04:08:32.628Z,1.5
2019-04-22T04:09:48.654Z,1.5
2019-04-22T04:11:42.566Z,1.7
2019-04-22T04:12:37.159Z,1.7
2019-04-22T04:13:33.024Z,1.6
2019-04-22T04:14:35.293Z,1.5
2019-04-22T04:16:38.567Z,1.5
2019-04-22T04:17:36.238Z,1.5
2019-04-22T04:18:39.063Z,1.4
2019-04-22T04:21:32.686Z,1.6
2019-04-22T04:22:51.990Z,1.7
2019-04-22T04:23:45.633Z,1.7
2019-04-22T04:24:43.791Z,1.7
2019-04-22T04:25:46.355Z,1.7
2019-04-22T04:26:45.051Z,1.7
2019-04-22T04:27:53.219Z,1.8
2019-04-22T04:28:49.990Z,1.8
2019-04-22T04:29:44.981Z,1.8
2019-04-22T04:30:29.367Z,1.8
2019-04-22T04:33:37.825Z,1.8
2019-04-22T04:34:53.273Z,1.8
2019-04-22T04:36:33.883Z,1.8
2019-04-22T04:38:36.127Z,1.8
2019-04-22T04:39:33.972Z,1.8
2019-04-22T04:40:30.964Z,1.8
2019-04-22T04:42:38.309Z,1.8
2019-04-22T04:43:34.839Z,1.8
2019-04-22T04:44:47.586Z,1.8
2019-04-22T04:48:41.761Z,1.9
2019-04-22T04:49:43.323Z,1.9
2019-04-22T04:51:55.392Z,1.9
2019-04-22T04:53:00.969Z,1.9
2019-04-22T04:53:24.265Z,1.9
2019-04-22T04:54:35.316Z,1.9
2019-04-22T04:56:35.731Z,2
2019-04-22T04:57:43.189Z,2.1
2019-04-22T04:59:50.494Z,2.1
2019-04-22T05:01:35.010Z,2
2019-04-22T05:04:46.220Z,3.3
2019-04-22T05:05:31.234Z,1.9
2019-04-22T05:07:40.159Z,1.8
2019-04-22T05:08:51.122Z,1.9
2019-04-22T05:10:49.080Z,2.1
2019-04-22T05:12:44.828Z,2
2019-04-22T05:13:38.965Z,2
2019-04-22T05:14:36.548Z,2
2019-04-22T05:15:29.216Z,2.2
2019-04-22T05:16:40.106Z,2.2
2019-04-22T05:17:34.694Z,2.1
2019-04-22T05:20:40.355Z,2.1
2019-04-22T05:21:29.336Z,2.1
2019-04-22T05:22:33.444Z,2.2
2019-04-22T05:23:43.662Z,2.2
2019-04-22T05:24:27.952Z,2.2
2019-04-22T05:25:26.380Z,2.2
2019-04-22T05:26:32.360Z,2.2
2019-04-22T05:27:33.929Z,2.2
2019-04-22T05:28:29.796Z,2.2
2019-04-22T05:29:35.935Z,2.3
2019-04-22T05:31:31.966Z,2.3
2019-04-22T05:32:30.527Z,2.4
2019-04-22T05:33:27.308Z,2.4
2019-04-22T05:34:27.847Z,2.4
2019-04-22T05:36:27.903Z,2.4
2019-04-22T05:37:26.882Z,2.4
2019-04-22T05:38:32.883Z,2.4
2019-04-22T05:39:28.120Z,2.5
2019-04-22T05:40:27.866Z,2.4
2019-04-22T05:41:28.548Z,2.5
2019-04-22T05:42:22.638Z,2.6
2019-04-22T05:43:27.072Z,2.5
2019-04-22T05:44:29.260Z,2.4
2019-04-22T05:45:24.603Z,2.5
2019-04-22T05:46:28.138Z,2.6
2019-04-22T05:47:25.250Z,2.7
2019-04-22T05:48:32.887Z,2.6
2019-04-22T05:49:28.548Z,2.4
2019-04-22T05:50:22.705Z,2.5
2019-04-22T05:51:30.926Z,2.6
2019-04-22T05:52:24.670Z,2.7
2019-04-22T05:53:25.238Z,2.7
2019-04-22T05:54:32.545Z,2.8
2019-04-22T05:55:35.634Z,2.8
2019-04-22T05:57:30.865Z,2.8
2019-04-22T05:58:29.145Z,2.8
2019-04-22T05:59:30.605Z,2.8
2019-04-22T06:00:40.238Z,2.9
2019-04-22T06:01:37.787Z,2.8
2019-04-22T06:02:39.119Z,2.9
2019-04-22T06:03:28.203Z,3
2019-04-22T06:04:29.180Z,3
2019-04-22T06:05:30.137Z,3
2019-04-22T06:06:39.775Z,3.1
2019-04-22T06:07:26.074Z,3.1
2019-04-22T06:08:28.946Z,3.1
2019-04-22T06:09:28.250Z,3.1
2019-04-22T06:10:32.468Z,3.2
2019-04-22T06:11:58.459Z,3.2
2019-04-22T06:12:25.845Z,3.2
2019-04-22T06:13:27.464Z,3.2
2019-04-22T06:14:24.490Z,3.2
2019-04-22T06:15:28.645Z,3.2
2019-04-22T06:16:30.492Z,3.2
2019-04-22T06:17:29.891Z,3.2
2019-04-22T06:18:33.108Z,3.2
2019-04-22T06:19:24.269Z,3.2
2019-04-22T06:20:32.022Z,3.2
2019-04-22T06:21:32.534Z,3.2
2019-04-22T06:22:36.894Z,3.2
2019-04-22T06:23:34.211Z,3.3
2019-04-22T06:24:27.108Z,3.4
2019-04-22T06:25:36.509Z,3.4
2019-04-22T06:26:37.363Z,3.4
2019-04-22T06:27:32.597Z,3.4
2019-04-22T06:28:34.648Z,3.5
2019-04-22T06:29:29.680Z,3.5
2019-04-22T06:30:28.226Z,3.5
2019-04-22T06:31:32.009Z,3.5
2019-04-22T06:33:47.602Z,3.7
2019-04-22T06:34:35.546Z,3.8
2019-04-22T06:36:35.741Z,4.1
2019-04-22T06:37:33.502Z,4.2
2019-04-22T06:40:31.352Z,4.3
2019-04-22T06:41:47.477Z,4.5
2019-04-22T06:42:34.641Z,4.4
2019-04-22T06:44:29.418Z,4.4
2019-04-22T06:45:28.458Z,4.6
2019-04-22T06:46:33.450Z,4.8
2019-04-22T06:47:43.683Z,4.6
2019-04-22T06:48:39.398Z,4.7
2019-04-22T06:50:35.636Z,4.9
2019-04-22T06:51:32.079Z,4.4
2019-04-22T06:52:27.782Z,4.5
2019-04-22T06:54:32.394Z,5
2019-04-22T06:55:35.291Z,4.6
2019-04-22T06:56:26.994Z,5
2019-04-22T06:57:30.098Z,4.4
2019-04-22T06:58:28.103Z,4.6
2019-04-22T06:59:31.002Z,4.6
2019-04-22T07:00:30.348Z,4.6
2019-04-22T07:04:41.414Z,4
2019-04-22T07:05:32.407Z,4.9
2019-04-22T07:06:41.415Z,5.1
2019-04-22T07:07:30.973Z,4.2
2019-04-22T07:09:34.808Z,4
2019-04-22T07:10:34.752Z,4
2019-04-22T07:11:29.438Z,3.7
2019-04-22T07:12:28.638Z,4
2019-04-22T07:14:28.064Z,4.3
2019-04-22T07:17:35.334Z,3.9
2019-04-22T07:19:27.453Z,3.9
2019-04-22T07:21:30.224Z,4.4
2019-04-22T07:22:44.825Z,4.6
2019-04-22T07:23:32.906Z,5.3
2019-04-22T07:24:40.204Z,5.2
2019-04-22T07:25:28.924Z,4.7
2019-04-22T07:26:28.873Z,5.3
2019-04-22T07:27:27.042Z,5.4
2019-04-22T07:28:22.594Z,4.6
2019-04-22T07:29:32.128Z,4.1
2019-04-22T07:30:31.056Z,4.4
2019-04-22T07:31:49.174Z,5.1
2019-04-22T07:32:53.011Z,4.1
2019-04-22T07:35:35.713Z,4.5
2019-04-22T07:36:45.374Z,5.5
2019-04-22T07:37:36.637Z,4.7
2019-04-22T07:39:29.539Z,5
2019-04-22T07:40:33.907Z,5
2019-04-22T07:41:31.569Z,4.4
2019-04-22T07:42:30.894Z,3.9
2019-04-22T07:43:51.302Z,3.7
2019-04-22T07:44:30.701Z,4.5
2019-04-22T07:46:33.372Z,3.5
2019-04-22T07:47:37.277Z,3.8
2019-04-22T07:48:37.379Z,3
2019-04-22T07:50:42.597Z,3.4
2019-04-22T07:51:32.515Z,3.2
2019-04-22T07:52:33.262Z,3.3
2019-04-22T07:53:27.609Z,3.6
2019-04-22T07:54:31.405Z,4.3
2019-04-22T07:55:32.023Z,4.4
2019-04-22T07:56:36.174Z,3.3
2019-04-22T07:57:32.199Z,4.4
2019-04-22T07:58:28.525Z,3.6
2019-04-22T07:59:33.714Z,3.1
2019-04-22T08:00:33.937Z,2.4
2019-04-22T08:01:30.370Z,2.2
2019-04-22T08:02:37.239Z,2.5
2019-04-22T08:03:37.102Z,2.2
2019-04-22T08:04:48.716Z,2.6
2019-04-22T08:05:32.652Z,2.4
2019-04-22T08:06:27.901Z,2.6
2019-04-22T08:08:28.600Z,3
2019-04-22T08:09:35.436Z,2.7
2019-04-22T08:10:36.639Z,2.1
2019-04-22T08:11:43.323Z,2.6
2019-04-22T08:14:34.267Z,2.9
2019-04-22T08:15:32.206Z,3.9
2019-04-22T08:16:28.253Z,3.4
2019-04-22T08:17:51.732Z,2.9
2019-04-22T08:18:33.903Z,2.5
2019-04-22T08:19:34.891Z,3.2
2019-04-22T08:20:33.221Z,3.5
2019-04-22T08:21:29.357Z,3.6
2019-04-22T08:22:33.751Z,3.5
2019-04-22T08:23:35.155Z,3.6
2019-04-22T08:24:35.414Z,3
2019-04-22T08:25:31.247Z,3.2
2019-04-22T08:26:31.614Z,3.7
2019-04-22T08:27:29.802Z,3.2
2019-04-22T08:28:37.710Z,2.9
2019-04-22T08:29:44.854Z,3.3
2019-04-22T08:30:47.289Z,3.4
2019-04-22T08:31:35.092Z,3.9
2019-04-22T08:32:34.326Z,3.8
2019-04-22T08:33:39.581Z,3.1
2019-04-22T08:34:29.032Z,2.5
2019-04-22T08:36:40.354Z,2.7
2019-04-22T08:37:47.249Z,2.6
2019-04-22T08:38:39.171Z,2.8
2019-04-22T08:39:30.802Z,2.1
2019-04-22T08:40:35.972Z,2.1
2019-04-22T08:42:42.731Z,2.8
2019-04-22T08:43:45.663Z,3
2019-04-22T08:44:50.716Z,3.1
2019-04-22T08:45:38.262Z,2.2
2019-04-22T08:46:48.406Z,2.5
2019-04-22T08:47:35.783Z,2.5
2019-04-22T08:48:35.968Z,2.6
2019-04-22T08:49:40.687Z,2.7
2019-04-22T08:50:33.184Z,2.6
2019-04-22T08:51:29.138Z,2.8
2019-04-22T08:52:33.439Z,2.7
2019-04-22T08:53:39.669Z,2.6
2019-04-22T08:54:35.639Z,3
2019-04-22T08:55:38.046Z,3.1
2019-04-22T08:57:46.700Z,3.5
2019-04-22T08:58:30.990Z,2
2019-04-22T08:59:27.768Z,2.6
2019-04-22T09:00:43.443Z,2.8
2019-04-22T09:01:32.544Z,2.4
2019-04-22T09:02:38.413Z,2.3
2019-04-22T09:03:30.191Z,3
2019-04-22T09:04:28.981Z,2.6
2019-04-22T09:05:48.193Z,2.7
2019-04-22T09:07:36.059Z,2.8
2019-04-22T09:08:33.626Z,2.1
2019-04-22T09:09:37.706Z,1.6
2019-04-22T09:10:37.266Z,1.5
2019-04-22T09:12:51.590Z,2
2019-04-22T09:13:34.984Z,1.8
2019-04-22T09:14:37.374Z,1.5
2019-04-22T09:15:33.899Z,2.3
2019-04-22T09:16:37.127Z,1.3
2019-04-22T09:17:39.401Z,1.1
2019-04-22T09:18:34.292Z,1.3
2019-04-22T09:19:33.614Z,0.9
2019-04-22T09:20:40.117Z,0.8
2019-04-22T09:21:37.628Z,0.5
2019-04-22T09:22:32.103Z,1.3
2019-04-22T09:23:36.679Z,0.3
2019-04-22T09:24:35.473Z,0.8
2019-04-22T09:25:34.074Z,0.8
2019-04-22T09:26:35.875Z,0.7
2019-04-22T09:27:37.898Z,0.3
2019-04-22T09:28:37.498Z,0.5
2019-04-22T09:29:39.408Z,0.2
2019-04-22T09:30:39.660Z,0.1
2019-04-22T09:31:35.179Z,0.4
2019-04-22T09:32:37.632Z,0.8
2019-04-22T09:33:42.931Z,0.6
2019-04-22T09:35:35.966Z,0.6
2019-04-22T09:36:40.512Z,1
2019-04-22T09:37:38.873Z,0.5
2019-04-22T09:38:37.424Z,0.4
2019-04-22T09:40:34.067Z,0.5
2019-04-22T09:41:38.809Z,0
2019-04-22T09:42:38.725Z,0.6
2019-04-22T09:43:39.846Z,1
2019-04-22T09:44:35.777Z,0.8
2019-04-22T09:45:33.920Z,1.1
2019-04-22T09:47:39.866Z,1.5
2019-04-22T09:48:36.914Z,1.4
2019-04-22T09:49:44.114Z,1.9
2019-04-22T09:51:36.691Z,1.8
2019-04-22T09:52:35.462Z,0.9
2019-04-22T09:53:35.914Z,0.9
2019-04-22T09:55:33.982Z,1.6
2019-04-22T09:56:37.164Z,2.1
2019-04-22T09:57:31.007Z,1.3
2019-04-22T09:58:39.264Z,1.2
2019-04-22T09:59:34.515Z,0.7
2019-04-22T10:00:37.241Z,0.9
2019-04-22T10:02:05.503Z,1.1
2019-04-22T10:02:40.442Z,1.1
2019-04-22T10:03:36.132Z,1.4
2019-04-22T10:04:39.302Z,1.1
2019-04-22T10:05:40.510Z,0.6
2019-04-22T10:06:33.196Z,1.8
2019-04-22T10:07:31.621Z,1.4
2019-04-22T10:08:40.482Z,1.6
2019-04-22T10:09:59.055Z,0.2
2019-04-22T10:11:37.477Z,0.4
2019-04-22T10:12:36.123Z,0.8
2019-04-22T10:13:40.433Z,0.9
2019-04-22T10:14:37.886Z,0
2019-04-22T10:15:38.898Z,0.5
2019-04-22T10:16:36.908Z,0.4
2019-04-22T10:17:36.321Z,0.2
2019-04-22T10:18:38.552Z,0.3
2019-04-22T10:19:35.700Z,1
2019-04-22T10:20:37.667Z,0.2
2019-04-22T10:23:37.401Z,0.9
2019-04-22T10:24:31.764Z,0.6
2019-04-22T10:25:34.589Z,0.9
2019-04-22T10:26:38.728Z,0.8
2019-04-22T10:27:32.233Z,0.9
2019-04-22T10:28:38.344Z,1.3
2019-04-22T10:29:41.369Z,1.1
2019-04-22T10:30:42.803Z,1
2019-04-22T10:31:53.959Z,1.5
2019-04-22T10:32:35.174Z,1.2
2019-04-22T10:33:30.522Z,2
2019-04-22T10:34:24.358Z,0.9
2019-04-22T10:35:16.870Z,1.6
2019-04-22T10:36:13.116Z,1.4
2019-04-22T10:37:16.580Z,2.1
2019-04-22T10:38:12.396Z,1.8
2019-04-22T10:39:12.633Z,1.5
2019-04-22T10:40:13.551Z,1.2
2019-04-22T10:41:14.524Z,1.4
2019-04-22T10:42:13.280Z,1.8
2019-04-22T10:43:12.497Z,0.9
2019-04-22T10:44:12.996Z,2.1
2019-04-22T10:45:12.518Z,1
2019-04-22T10:46:13.806Z,1.4
2019-04-22T10:47:13.852Z,2.1
2019-04-22T10:48:12.562Z,1
2019-04-22T10:49:18.103Z,1.5
2019-04-22T10:50:12.721Z,0.7
2019-04-22T10:51:12.800Z,1.5
2019-04-22T10:52:12.973Z,0.9
2019-04-22T10:53:13.294Z,1.8
2019-04-22T10:54:13.480Z,1.3
2019-04-22T10:55:15.385Z,1.3
2019-04-22T10:56:12.966Z,1.2
2019-04-22T10:57:13.949Z,0.2
2019-04-22T10:58:13.111Z,0.1
2019-04-22T10:59:14.174Z,0.8
2019-04-22T11:00:13.589Z,0.5
2019-04-22T11:01:13.585Z,0
2019-04-22T11:02:13.699Z,0.5
2019-04-22T11:03:16.165Z,1.4
2019-04-22T11:04:15.763Z,0.7
2019-04-22T11:05:14.425Z,1
2019-04-22T11:06:13.352Z,1
2019-04-22T11:07:14.882Z,1
2019-04-22T11:08:20.120Z,1.1
2019-04-22T11:09:14.208Z,1.7
2019-04-22T11:10:27.201Z,1.7
2019-04-22T11:11:25.581Z,1.8
2019-04-22T11:12:17.433Z,1.2
2019-04-22T11:13:13.750Z,1.7
2019-04-22T11:14:14.759Z,0.9
2019-04-22T11:15:13.889Z,0.5
2019-04-22T11:16:13.857Z,0.6
2019-04-22T11:17:13.785Z,0.7
2019-04-22T11:18:13.778Z,0.6
2019-04-22T11:19:17.171Z,0.8
2019-04-22T11:20:13.863Z,0.7
2019-04-22T11:21:13.804Z,0.4
2019-04-22T11:22:20.401Z,0.8
2019-04-22T11:23:14.370Z,0.4
2019-04-22T11:24:14.830Z,0
2019-04-22T11:25:13.961Z,-0.3
2019-04-22T11:26:13.835Z,0.1
2019-04-22T11:27:14.845Z,-0.1
2019-04-22T11:28:15.968Z,-0.2
2019-04-22T11:29:14.081Z,0
2019-04-22T11:30:17.157Z,0
2019-04-22T11:31:14.668Z,-0.2
2019-04-22T11:32:14.831Z,0
2019-04-22T11:33:14.381Z,0.3
2019-04-22T11:34:15.322Z,0.1
2019-04-22T11:35:14.158Z,0.6
2019-04-22T11:36:15.594Z,0.2
2019-04-22T11:37:14.639Z,0
2019-04-22T11:38:14.983Z,-0.7
2019-04-22T11:39:16.797Z,-0.5
2019-04-22T11:40:22.196Z,-0.8
2019-04-22T11:41:14.747Z,-0.1
2019-04-22T11:42:16.244Z,-0.4
2019-04-22T11:43:16.385Z,-0.1
2019-04-22T11:44:15.043Z,-0.3
2019-04-22T11:45:15.255Z,-0.1
2019-04-22T11:46:15.639Z,-0.1
2019-04-22T11:47:15.082Z,0.6
2019-04-22T11:48:15.421Z,0.1
2019-04-22T11:49:14.471Z,0.1
2019-04-22T11:50:15.580Z,-0.9
2019-04-22T11:51:15.817Z,-0.3
2019-04-22T11:52:16.470Z,0.2
2019-04-22T11:53:14.500Z,-0.4
2019-04-22T11:54:14.748Z,-0.4
2019-04-22T11:55:14.921Z,-0.6
2019-04-22T11:56:14.583Z,0.4
2019-04-22T11:57:15.030Z,0.1
2019-04-22T11:58:14.965Z,0.2
2019-04-22T11:59:15.024Z,0
2019-04-22T12:00:14.751Z,0.2
2019-04-22T12:01:14.919Z,0.2
2019-04-22T12:02:16.172Z,0.4
2019-04-22T12:03:14.828Z,0.1
2019-04-22T12:04:15.840Z,0.1
2019-04-22T12:05:15.888Z,0.7
2019-04-22T12:06:15.784Z,0.5
2019-04-22T12:07:15.025Z,0
2019-04-22T12:08:15.437Z,0.2
2019-04-22T12:09:17.617Z,0.9
2019-04-22T12:10:25.253Z,1.5
2019-04-22T12:11:14.733Z,1.6
2019-04-22T12:12:15.911Z,1.9
2019-04-22T12:13:15.753Z,1.3
2019-04-22T12:14:15.855Z,1.7
2019-04-22T12:15:15.022Z,0.9
2019-04-22T12:16:14.748Z,1
2019-04-22T12:17:15.956Z,1.9
2019-04-22T12:18:15.273Z,1.9
2019-04-22T12:19:15.621Z,2
2019-04-22T12:20:16.413Z,1.6
2019-04-22T12:21:15.250Z,1.9
2019-04-22T12:22:15.323Z,1.9
2019-04-22T12:23:14.885Z,1.2
2019-04-22T12:24:15.219Z,2.1
2019-04-22T12:25:22.243Z,2.3
2019-04-22T12:26:18.482Z,2.2
2019-04-22T12:27:17.410Z,2.8
2019-04-22T12:28:15.194Z,2.2
2019-04-22T12:29:15.453Z,2.4
2019-04-22T12:30:16.691Z,1.8
2019-04-22T12:31:15.498Z,2.1
2019-04-22T12:32:15.722Z,2.4
2019-04-22T12:33:15.132Z,2.4
2019-04-22T12:34:15.549Z,2
2019-04-22T12:35:17.729Z,1.5
2019-04-22T12:36:15.321Z,2
2019-04-22T12:37:24.689Z,2.3
2019-04-22T12:38:16.929Z,2.4
2019-04-22T12:39:15.693Z,2.3
2019-04-22T12:40:26.776Z,2.3
2019-04-22T12:41:16.015Z,1.9
2019-04-22T12:42:15.663Z,2
2019-04-22T12:43:18.494Z,1.8
2019-04-22T12:44:15.772Z,2
2019-04-22T12:45:16.229Z,2
2019-04-22T12:46:16.318Z,1.4
2019-04-22T12:47:15.867Z,1.9
2019-04-22T12:48:17.066Z,2.1
2019-04-22T12:49:16.262Z,2.1
2019-04-22T12:50:22.344Z,1.8
2019-04-22T12:51:16.098Z,2
2019-04-22T12:52:23.883Z,1.5
2019-04-22T12:53:18.609Z,1.8
2019-04-22T12:54:17.087Z,1.8
2019-04-22T12:55:17.412Z,2.3
2019-04-22T12:56:17.390Z,2.3
2019-04-22T12:57:16.784Z,1.9
2019-04-22T12:58:17.944Z,2.7
2019-04-22T12:59:17.256Z,2.2
2019-04-22T13:00:17.630Z,1.9
2019-04-22T13:01:16.964Z,2.4
2019-04-22T13:02:16.561Z,2.6
2019-04-22T13:03:17.823Z,2.3
2019-04-22T13:04:19.184Z,2.1
2019-04-22T13:05:16.674Z,2.1
2019-04-22T13:06:17.505Z,2.4
2019-04-22T13:07:17.670Z,2.7
2019-04-22T13:08:18.017Z,2.4
2019-04-22T13:09:18.034Z,2.8
2019-04-22T13:10:17.753Z,2.5
2019-04-22T13:11:20.164Z,2.1
2019-04-22T13:12:17.207Z,2.4
2019-04-22T13:13:17.028Z,2.1
2019-04-22T13:14:17.087Z,2.6
2019-04-22T13:15:18.113Z,2.6
2019-04-22T13:16:17.510Z,2.2
2019-04-22T13:17:18.599Z,3
2019-04-22T13:18:27.580Z,2
2019-04-22T13:19:19.307Z,2.3
2019-04-22T13:20:19.807Z,2.2
2019-04-22T13:21:18.501Z,2.7
2019-04-22T13:22:18.732Z,2.5
2019-04-22T13:23:17.951Z,2.5
2019-04-22T13:24:19.802Z,2.7
2019-04-22T13:25:17.682Z,2.4
2019-04-22T13:26:18.864Z,2.1
2019-04-22T13:27:22.051Z,2.5
2019-04-22T13:28:19.017Z,2.2
2019-04-22T13:29:19.109Z,2.7
2019-04-22T13:30:18.564Z,2.6
2019-04-22T13:31:20.446Z,2.6
2019-04-22T13:32:18.607Z,2.2
2019-04-22T13:33:19.016Z,2
2019-04-22T13:34:25.590Z,2.4
2019-04-22T13:35:19.927Z,2.5
2019-04-22T13:36:20.447Z,2.2
2019-04-22T13:37:19.105Z,2.5
2019-04-22T13:38:18.971Z,2.2
2019-04-22T13:39:18.760Z,2.3
2019-04-22T13:40:19.027Z,2.4
2019-04-22T13:41:28.808Z,2.2
2019-04-22T13:42:20.271Z,2.4
2019-04-22T13:43:18.758Z,2.7
2019-04-22T13:44:18.927Z,2.2
2019-04-22T13:45:17.977Z,2.3
2019-04-22T13:46:17.931Z,2.5
2019-04-22T13:47:34.504Z,2.3
2019-04-22T13:48:38.025Z,2.7
2019-04-22T13:49:49.208Z,2.3
2019-04-22T13:50:49.215Z,2.6
2019-04-22T13:51:51.900Z,2.4
2019-04-22T13:54:11.938Z,2.2
2019-04-22T13:54:48.009Z,3
2019-04-22T13:55:44.798Z,2.1
2019-04-22T13:56:36.858Z,1.9
2019-04-22T13:57:37.715Z,2.5
2019-04-22T13:58:31.051Z,1.7
2019-04-22T13:59:26.556Z,1.5
2019-04-22T14:00:18.394Z,1.5
2019-04-22T14:01:18.710Z,1.6
2019-04-22T14:02:18.846Z,1.1
2019-04-22T14:03:18.399Z,2.1
2019-04-22T14:04:18.519Z,2.2
2019-04-22T14:05:19.219Z,1
2019-04-22T14:06:18.601Z,1.1
2019-04-22T14:07:18.906Z,1.2
2019-04-22T14:08:19.814Z,1.1
2019-04-22T14:09:18.529Z,1.1
2019-04-22T14:10:18.585Z,0.7
2019-04-22T14:11:27.534Z,1
2019-04-22T14:12:19.746Z,1
2019-04-22T14:13:19.605Z,1.4
2019-04-22T14:14:19.895Z,1
2019-04-22T14:15:18.191Z,1
2019-04-22T14:16:19.512Z,0.6
2019-04-22T14:17:18.759Z,0.5
2019-04-22T14:18:19.056Z,0.4
2019-04-22T14:19:18.549Z,0.5
2019-04-22T14:20:18.759Z,1.3
2019-04-22T14:21:18.833Z,0.2
2019-04-22T14:22:19.916Z,0.7
2019-04-22T14:23:18.620Z,0.9
2019-04-22T14:24:19.773Z,0.4
2019-04-22T14:25:20.709Z,1.3
2019-04-22T14:26:19.651Z,0.8
2019-04-22T14:27:30.278Z,1.2
2019-04-22T14:28:21.103Z,1.1
2019-04-22T14:29:19.678Z,1
2019-04-22T14:30:18.908Z,0.6
2019-04-22T14:31:20.230Z,0.8
2019-04-22T14:32:23.594Z,0.7
2019-04-22T14:33:20.186Z,1
2019-04-22T14:34:20.717Z,1.7
2019-04-22T14:35:19.026Z,1.9
2019-04-22T14:36:19.225Z,1.8
2019-04-22T14:37:20.306Z,1.5
2019-04-22T14:38:19.106Z,1.1
2019-04-22T14:39:19.835Z,1
2019-04-22T14:40:20.648Z,1
2019-04-22T14:41:35.586Z,1.3
2019-04-22T14:42:39.235Z,1.6
2019-04-22T14:43:47.577Z,1.4
2019-04-22T14:45:47.204Z,1.1
2019-04-22T14:46:49.044Z,1.1
2019-04-22T14:47:46.305Z,1
2019-04-22T14:48:45.620Z,1
2019-04-22T14:49:41.662Z,0.8
2019-04-22T14:50:39.913Z,0.9
2019-04-22T14:51:36.963Z,1.5
2019-04-22T14:52:39.341Z,1.2
2019-04-22T14:53:40.936Z,2.2
2019-04-22T14:54:34.476Z,1.3
2019-04-22T14:55:24.974Z,1.3
2019-04-22T14:56:20.226Z,1.6
2019-04-22T14:57:21.345Z,1.1
2019-04-22T14:58:19.988Z,1.1
2019-04-22T14:59:20.833Z,1.9
2019-04-22T15:00:20.165Z,0.8
2019-04-22T15:01:21.077Z,1
2019-04-22T15:02:21.462Z,1
2019-04-22T15:03:21.700Z,0.9
2019-04-22T15:04:21.236Z,0.9
2019-04-22T15:05:21.906Z,0.9
2019-04-22T15:06:22.272Z,1.1
2019-04-22T15:07:21.072Z,0.9
2019-04-22T15:08:21.370Z,0.8
2019-04-22T15:09:21.701Z,0.6
2019-04-22T15:10:22.075Z,0.9
2019-04-22T15:11:21.260Z,0.7
2019-04-22T15:12:30.790Z,0.5
2019-04-22T15:13:21.177Z,0.7
2019-04-22T15:14:21.443Z,0.4
2019-04-22T15:15:21.739Z,0.5
2019-04-22T15:16:20.717Z,0.6
2019-04-22T15:17:20.919Z,0.7
2019-04-22T15:18:21.857Z,0.7
2019-04-22T15:19:22.089Z,0.6
2019-04-22T15:20:21.495Z,0.5
2019-04-22T15:21:20.897Z,0.7
2019-04-22T15:22:21.034Z,0.9
2019-04-22T15:23:22.116Z,0.4
2019-04-22T15:24:22.769Z,0.3
2019-04-22T15:25:21.074Z,0.4
2019-04-22T15:26:22.229Z,0.5
2019-04-22T15:27:22.445Z,0.3
2019-04-22T15:28:21.674Z,0.3
2019-04-22T15:29:21.277Z,0.6
2019-04-22T15:30:21.464Z,0.6
2019-04-22T15:31:21.683Z,0.7
2019-04-22T15:32:21.309Z,0.5
2019-04-22T15:33:21.495Z,0.5
2019-04-22T15:34:22.572Z,0.5
2019-04-22T15:35:23.014Z,0.4